createdAt,value
2022-10-24T00:00:08.994Z,9.12
2022-10-24T00:02:38.827Z,9.88
2022-10-24T00:05:09.430Z,9.12
2022-10-24T00:07:39.040Z,9.50
2022-10-24T00:10:13.008Z,10.07
2022-10-24T00:12:43.570Z,10.45
2022-10-24T00:15:14.820Z,11.59
2022-10-24T00:17:44.600Z,9.50
2022-10-24T00:20:14.701Z,9.31
2022-10-24T00:22:44.511Z,9.31
2022-10-24T00:25:14.518Z,8.55
2022-10-24T00:27:44.331Z,8.74
2022-10-24T00:30:14.256Z,9.69
2022-10-24T00:32:44.311Z,9.31
2022-10-24T00:35:14.407Z,9.31
2022-10-24T00:37:44.252Z,9.50
2022-10-24T00:40:18.569Z,9.50
2022-10-24T00:42:49.762Z,8.55
2022-10-24T00:45:46.132Z,8.55
2022-10-24T00:48:27.271Z,8.36
2022-10-24T00:51:29.024Z,9.12
2022-10-24T00:54:08.566Z,8.55
2022-10-24T00:56:49.254Z,7.98
2022-10-24T00:59:20.830Z,8.17
2022-10-24T01:01:50.612Z,8.55
2022-10-24T01:04:20.485Z,7.60
2022-10-24T01:07:31.231Z,8.17
2022-10-24T01:10:42.871Z,8.55
2022-10-24T01:13:46.490Z,7.98
2022-10-24T01:16:29.243Z,7.98
2022-10-24T01:19:38.911Z,8.36
2022-10-24T01:22:24.011Z,8.55
2022-10-24T01:25:43.570Z,8.17
2022-10-24T01:28:33.113Z,7.79
2022-10-24T01:31:12.130Z,7.60
2022-10-24T01:33:57.403Z,8.17
2022-10-24T01:36:39.912Z,7.79
2022-10-24T01:39:18.531Z,7.60
2022-10-24T01:41:50.304Z,7.79
2022-10-24T01:44:36.931Z,7.79
2022-10-24T01:47:14.512Z,8.17
2022-10-24T01:49:53.685Z,7.22
2022-10-24T01:52:29.151Z,7.03
2022-10-24T01:55:00.231Z,7.98
2022-10-24T01:57:33.320Z,6.84
2022-10-24T02:00:09.983Z,7.22
2022-10-24T02:02:44.242Z,7.22
2022-10-24T02:05:40.974Z,7.41
2022-10-24T02:08:25.274Z,7.79
2022-10-24T02:11:02.599Z,7.41
2022-10-24T02:13:56.481Z,6.84
2022-10-24T02:16:26.515Z,6.84
2022-10-24T02:18:58.651Z,7.41
2022-10-24T02:21:31.125Z,7.98
2022-10-24T02:24:17.660Z,6.84
2022-10-24T02:27:03.588Z,7.79
2022-10-24T02:29:50.496Z,8.17
2022-10-24T02:32:33.037Z,7.60
2022-10-24T02:35:06.865Z,7.41
2022-10-24T02:37:43.800Z,8.17
2022-10-24T02:40:18.510Z,7.98
2022-10-24T02:42:53.146Z,8.55
2022-10-24T02:45:25.208Z,7.98
2022-10-24T02:48:02.767Z,8.17
2022-10-24T02:50:33.312Z,7.79
2022-10-24T02:53:04.341Z,7.79
2022-10-24T02:55:34.305Z,7.98
2022-10-24T02:58:04.461Z,7.22
2022-10-24T03:00:34.191Z,7.41
2022-10-24T03:03:04.265Z,7.03
2022-10-24T03:05:34.452Z,7.60
2022-10-24T03:08:04.647Z,6.27
2022-10-24T03:10:34.428Z,7.22
2022-10-24T03:13:04.229Z,6.84
2022-10-24T03:15:34.301Z,8.17
2022-10-24T03:18:04.254Z,7.03
2022-10-24T03:20:34.060Z,7.03
2022-10-24T03:23:04.171Z,6.46
2022-10-24T03:25:34.412Z,6.27
2022-10-24T03:28:04.875Z,6.65
2022-10-24T03:30:34.642Z,6.46
2022-10-24T03:33:04.685Z,6.84
2022-10-24T03:35:37.142Z,6.65
2022-10-24T03:38:08.291Z,6.27
2022-10-24T03:40:38.375Z,7.03
2022-10-24T03:43:08.197Z,6.27
2022-10-24T03:45:38.055Z,6.08
2022-10-24T03:48:08.201Z,7.03
2022-10-24T03:50:38.299Z,6.08
2022-10-24T03:53:08.134Z,6.46
2022-10-24T03:55:38.279Z,6.27
2022-10-24T03:58:08.144Z,6.27
2022-10-24T04:00:40.456Z,6.46
2022-10-24T04:03:10.808Z,7.22
2022-10-24T04:05:40.823Z,6.46
2022-10-24T04:08:10.811Z,5.89
2022-10-24T04:10:40.621Z,6.46
2022-10-24T04:13:11.005Z,5.89
2022-10-24T04:15:41.184Z,6.27
2022-10-24T04:18:10.939Z,7.41
2022-10-24T04:20:40.660Z,6.27
2022-10-24T04:23:10.562Z,6.08
2022-10-24T04:25:41.034Z,6.27
2022-10-24T04:28:10.879Z,7.41
2022-10-24T04:30:40.854Z,6.65
2022-10-24T04:33:10.948Z,6.27
2022-10-24T04:35:46.698Z,6.08
2022-10-24T04:38:17.843Z,6.46
2022-10-24T04:40:53.741Z,7.03
2022-10-24T04:43:24.621Z,5.89
2022-10-24T04:45:54.368Z,7.22
2022-10-24T04:48:24.071Z,6.46
2022-10-24T04:50:56.894Z,7.22
2022-10-24T04:53:26.711Z,7.03
2022-10-24T04:55:56.634Z,6.27
2022-10-24T04:58:26.497Z,7.60
2022-10-24T05:00:56.455Z,7.79
2022-10-24T05:03:26.314Z,6.84
2022-10-24T05:05:56.099Z,5.70
2022-10-24T05:08:25.846Z,7.41
2022-10-24T05:10:55.586Z,7.03
2022-10-24T05:13:25.331Z,7.79
2022-10-24T05:15:55.171Z,7.79
2022-10-24T05:18:24.912Z,6.84
2022-10-24T05:21:00.363Z,6.65
2022-10-24T05:23:30.087Z,5.70
2022-10-24T05:25:59.994Z,7.60
2022-10-24T05:28:29.740Z,7.79
2022-10-24T05:30:59.798Z,7.22
2022-10-24T05:33:29.833Z,6.84
2022-10-24T05:35:59.613Z,7.60
2022-10-24T05:38:29.308Z,7.98
2022-10-24T05:40:59.459Z,6.84
2022-10-24T05:43:29.302Z,7.60
2022-10-24T05:45:59.065Z,7.60
2022-10-24T05:48:29.515Z,7.60
2022-10-24T05:50:59.958Z,6.84
2022-10-24T05:53:29.818Z,7.41
2022-10-24T05:55:59.713Z,7.79
2022-10-24T05:58:29.446Z,7.41
2022-10-24T06:00:59.415Z,7.03
2022-10-24T06:03:29.319Z,7.22
2022-10-24T06:06:05.944Z,7.41
2022-10-24T06:08:37.914Z,7.22
2022-10-24T06:11:12.705Z,7.03
2022-10-24T06:13:42.836Z,6.84
2022-10-24T06:16:13.123Z,7.03
2022-10-24T06:18:43.223Z,7.03
2022-10-24T06:21:13.811Z,7.22
2022-10-24T06:23:43.710Z,6.84
2022-10-24T06:26:14.707Z,7.03
2022-10-24T06:28:44.883Z,6.27
2022-10-24T06:31:14.900Z,6.27
2022-10-24T06:33:44.807Z,6.84
2022-10-24T06:36:14.597Z,7.41
2022-10-24T06:38:44.555Z,7.41
2022-10-24T06:41:17.292Z,6.46
2022-10-24T06:43:47.088Z,7.79
2022-10-24T06:46:17.726Z,7.03
2022-10-24T06:48:47.995Z,8.17
2022-10-24T06:51:17.995Z,6.65
2022-10-24T06:53:48.055Z,7.41
2022-10-24T06:56:18.376Z,7.22
2022-10-24T06:58:48.144Z,5.89
2022-10-24T07:01:22.944Z,7.41
2022-10-24T07:03:54.478Z,8.36
2022-10-24T07:06:28.606Z,7.03
2022-10-24T07:09:01.842Z,5.70
2022-10-24T07:11:33.854Z,6.65
2022-10-24T07:14:06.937Z,6.27
2022-10-24T07:16:40.113Z,7.98
2022-10-24T07:19:11.417Z,7.03
2022-10-24T07:21:41.180Z,7.60
2022-10-24T07:24:13.390Z,7.79
2022-10-24T07:26:43.099Z,7.41
2022-10-24T07:29:12.983Z,8.55
2022-10-24T07:31:42.936Z,10.07
2022-10-24T07:34:12.657Z,8.55
2022-10-24T07:36:43.734Z,6.08
2022-10-24T07:39:14.070Z,6.65
2022-10-24T07:41:43.723Z,7.03
2022-10-24T07:44:13.632Z,6.08
2022-10-24T07:46:43.471Z,5.89
2022-10-24T07:49:13.252Z,6.46
2022-10-24T07:51:43.327Z,6.08
2022-10-24T07:54:13.163Z,6.27
2022-10-24T07:56:42.928Z,5.70
2022-10-24T07:59:29.965Z,6.65
2022-10-24T08:02:02.513Z,6.65
2022-10-24T08:04:32.297Z,6.65
2022-10-24T08:07:02.011Z,7.03
2022-10-24T08:09:31.928Z,5.13
2022-10-24T08:12:01.755Z,6.46
2022-10-24T08:14:31.737Z,5.70
2022-10-24T08:17:01.478Z,6.84
2022-10-24T08:19:32.727Z,9.31
2022-10-24T08:22:03.946Z,5.89
2022-10-24T08:24:33.781Z,5.89
2022-10-24T08:27:03.848Z,6.08
2022-10-24T08:29:33.823Z,5.89
2022-10-24T08:32:04.683Z,4.75
2022-10-24T08:34:35.129Z,5.89
2022-10-24T08:37:05.090Z,7.03
2022-10-24T08:39:35.220Z,4.37
2022-10-24T08:42:14.668Z,5.70
2022-10-24T08:44:47.453Z,5.89
2022-10-24T08:48:07.102Z,4.75
2022-10-24T08:50:42.051Z,4.37
2022-10-24T08:53:25.377Z,4.56
2022-10-24T08:55:59.695Z,4.56
2022-10-24T08:58:41.893Z,4.94
2022-10-24T09:01:28.274Z,4.56
2022-10-24T09:04:06.098Z,4.18
2022-10-24T09:06:37.958Z,5.32
2022-10-24T09:09:38.081Z,5.13
2022-10-24T09:12:17.838Z,5.51
2022-10-24T09:14:57.675Z,4.75
2022-10-24T09:17:37.272Z,5.70
2022-10-24T09:20:33.373Z,5.70
2022-10-24T09:23:06.550Z,3.80
2022-10-24T09:25:36.584Z,4.56
2022-10-24T09:28:07.093Z,4.56
2022-10-24T09:30:36.708Z,3.80
2022-10-24T09:33:33.755Z,5.51
2022-10-24T09:36:05.135Z,3.80
2022-10-24T09:38:38.692Z,4.94
2022-10-24T09:41:19.865Z,4.37
2022-10-24T09:44:47.760Z,3.99
2022-10-24T09:47:27.926Z,4.37
2022-10-24T09:49:57.731Z,4.75
2022-10-24T09:52:29.672Z,4.56
2022-10-24T09:55:22.465Z,4.75
2022-10-24T09:57:59.449Z,5.13
2022-10-24T10:00:34.800Z,5.13
2022-10-24T10:03:23.556Z,4.75
2022-10-24T10:06:21.368Z,3.99
2022-10-24T10:08:55.796Z,3.99
2022-10-24T10:11:35.416Z,3.80
2022-10-24T10:14:24.192Z,3.61
2022-10-24T10:17:06.797Z,4.37
2022-10-24T10:19:38.357Z,4.18
2022-10-24T10:22:31.877Z,4.75
2022-10-24T10:25:01.682Z,5.13
2022-10-24T10:27:41.347Z,3.80
2022-10-24T10:30:15.212Z,3.61
2022-10-24T10:33:29.676Z,3.42
2022-10-24T10:36:16.488Z,3.99
2022-10-24T10:38:51.718Z,3.61
2022-10-24T10:42:10.975Z,4.37
2022-10-24T10:45:16.006Z,6.08
2022-10-24T10:48:30.060Z,6.27
2022-10-24T10:51:28.735Z,4.75
2022-10-24T10:54:38.738Z,4.18
2022-10-24T10:57:28.846Z,3.99
2022-10-24T11:00:10.041Z,3.99
2022-10-24T11:03:13.557Z,3.61
2022-10-24T11:06:06.209Z,3.61
2022-10-24T11:09:21.210Z,4.56
2022-10-24T11:12:25.819Z,3.61
2022-10-24T11:15:02.302Z,4.18
2022-10-24T11:17:57.046Z,3.23
2022-10-24T11:20:45.250Z,3.23
2022-10-24T11:23:36.945Z,3.80
2022-10-24T11:26:19.345Z,3.61
2022-10-24T11:29:31.263Z,3.99
2022-10-24T11:32:31.556Z,4.18
2022-10-24T11:35:29.326Z,3.99
2022-10-24T11:38:17.378Z,3.80
2022-10-24T11:40:58.708Z,3.80
2022-10-24T11:43:43.341Z,4.18
2022-10-24T11:46:24.859Z,3.99
2022-10-24T11:49:09.998Z,4.18
2022-10-24T11:51:52.481Z,3.61
2022-10-24T11:54:51.065Z,3.61
2022-10-24T11:57:27.660Z,3.04
2022-10-24T11:59:59.003Z,3.23
2022-10-24T12:02:54.825Z,3.42
2022-10-24T12:05:51.352Z,3.80
2022-10-24T12:08:55.022Z,3.23
2022-10-24T12:11:48.380Z,2.85
2022-10-24T12:15:08.206Z,4.18
2022-10-24T12:17:43.510Z,4.56
2022-10-24T12:20:20.849Z,3.42
2022-10-24T12:22:52.777Z,3.42
2022-10-24T12:25:33.247Z,3.99
2022-10-24T12:28:08.556Z,3.04
2022-10-24T12:30:39.669Z,3.61
2022-10-24T12:33:25.612Z,3.04
2022-10-24T12:35:57.346Z,3.99
2022-10-24T12:38:27.168Z,4.37
2022-10-24T12:41:18.149Z,3.99
2022-10-24T12:43:49.824Z,3.80
2022-10-24T12:46:24.592Z,3.61
2022-10-24T12:48:57.204Z,3.42
2022-10-24T12:51:39.791Z,4.18
2022-10-24T12:54:12.509Z,3.61
2022-10-24T12:56:51.663Z,3.42
2022-10-24T12:59:47.535Z,4.18
2022-10-24T13:02:20.069Z,3.42
2022-10-24T13:05:28.221Z,3.61
2022-10-24T13:08:18.315Z,3.42
2022-10-24T13:11:11.832Z,3.61
2022-10-24T13:14:29.279Z,3.80
2022-10-24T13:17:49.686Z,3.99
2022-10-24T13:20:22.071Z,3.99
2022-10-24T13:23:03.753Z,3.42
2022-10-24T13:25:34.916Z,5.13
2022-10-24T13:28:19.857Z,3.61
2022-10-24T13:31:16.756Z,4.18
2022-10-24T13:33:47.660Z,3.80
2022-10-24T13:36:28.540Z,4.18
2022-10-24T13:39:02.792Z,5.51
2022-10-24T13:41:58.232Z,4.18
2022-10-24T13:44:47.853Z,4.18
2022-10-24T13:47:36.168Z,5.13
2022-10-24T13:50:12.111Z,3.80
2022-10-24T13:52:44.577Z,3.80
2022-10-24T13:55:27.534Z,4.18
2022-10-24T13:58:06.071Z,3.42
2022-10-24T14:00:55.297Z,3.42
2022-10-24T14:03:29.888Z,3.80
2022-10-24T14:06:08.356Z,3.23
2022-10-24T14:08:56.082Z,3.61
2022-10-24T14:11:33.065Z,3.42
2022-10-24T14:14:07.795Z,3.61
2022-10-24T14:16:39.043Z,3.99
2022-10-24T14:19:17.598Z,3.23
2022-10-24T14:21:50.335Z,3.61
2022-10-24T14:24:22.935Z,4.18
2022-10-24T14:26:54.269Z,3.23
2022-10-24T14:29:31.185Z,4.94
2022-10-24T14:32:07.717Z,3.61
2022-10-24T14:34:39.271Z,4.18
2022-10-24T14:37:16.891Z,3.80
2022-10-24T14:39:46.979Z,3.61
2022-10-24T14:42:18.504Z,4.37
2022-10-24T14:44:49.584Z,4.37
2022-10-24T14:47:34.073Z,3.99
2022-10-24T14:50:04.148Z,4.94
2022-10-24T14:52:39.601Z,4.75
2022-10-24T14:55:21.405Z,3.61
2022-10-24T14:57:53.870Z,4.56
2022-10-24T15:00:38.050Z,4.18
2022-10-24T15:03:10.618Z,3.80
2022-10-24T15:05:42.721Z,4.56
2022-10-24T15:08:27.568Z,4.37
2022-10-24T15:11:16.227Z,4.18
2022-10-24T15:14:06.285Z,3.61
2022-10-24T15:16:40.741Z,3.99
2022-10-24T15:19:18.203Z,4.75
2022-10-24T15:21:48.496Z,4.75
2022-10-24T15:24:26.845Z,3.99
2022-10-24T15:27:12.695Z,4.37
2022-10-24T15:29:42.435Z,4.18
2022-10-24T15:32:12.366Z,3.80
2022-10-24T15:34:42.070Z,3.80
2022-10-24T15:37:25.133Z,3.80
2022-10-24T15:39:55.858Z,3.61
2022-10-24T15:42:25.862Z,3.80
2022-10-24T15:44:55.660Z,4.18
2022-10-24T15:47:25.374Z,3.42
2022-10-24T15:49:55.047Z,4.18
2022-10-24T15:52:24.861Z,4.18
2022-10-24T15:54:54.581Z,3.42
2022-10-24T15:57:24.364Z,3.61
2022-10-24T15:59:54.050Z,3.80
2022-10-24T16:02:24.818Z,3.99
2022-10-24T16:04:54.600Z,3.80
2022-10-24T16:07:24.336Z,3.61
2022-10-24T16:09:54.660Z,3.80
2022-10-24T16:12:24.591Z,3.42
2022-10-24T16:14:54.254Z,4.18
2022-10-24T16:17:23.987Z,3.04
2022-10-24T16:19:53.744Z,3.42
2022-10-24T16:22:23.427Z,3.99
2022-10-24T16:24:53.182Z,3.04
2022-10-24T16:27:22.989Z,3.61
2022-10-24T16:29:52.842Z,3.42
2022-10-24T16:32:22.670Z,3.80
2022-10-24T16:34:52.575Z,3.99
2022-10-24T16:37:22.328Z,3.80
2022-10-24T16:39:51.987Z,3.61
2022-10-24T16:42:24.168Z,3.99
2022-10-24T16:44:54.661Z,3.42
2022-10-24T16:47:25.376Z,3.61
2022-10-24T16:50:00.209Z,3.61
2022-10-24T16:52:30.347Z,4.18
2022-10-24T16:55:00.107Z,3.99
2022-10-24T16:57:29.875Z,3.42
2022-10-24T16:59:59.695Z,3.42
2022-10-24T17:02:29.397Z,4.18
2022-10-24T17:04:59.186Z,3.04
2022-10-24T17:07:29.054Z,3.23
2022-10-24T17:09:58.804Z,3.99
2022-10-24T17:16:55.399Z,2.85
2022-10-24T17:19:25.220Z,3.61
2022-10-24T17:21:55.224Z,3.04
2022-10-24T17:24:26.295Z,3.42
2022-10-24T17:26:56.651Z,2.85
2022-10-24T17:29:33.636Z,3.23
2022-10-24T17:32:05.542Z,3.23
2022-10-24T17:34:35.883Z,3.23
2022-10-24T17:37:24.932Z,2.85
2022-10-24T17:40:12.319Z,3.04
2022-10-24T17:42:43.354Z,2.85
2022-10-24T17:45:22.179Z,3.42
2022-10-24T17:47:52.002Z,3.42
2022-10-24T17:50:21.743Z,2.85
2022-10-24T17:52:52.191Z,3.61
2022-10-24T17:55:46.101Z,3.61
2022-10-24T17:58:16.640Z,2.85
2022-10-24T18:00:47.337Z,3.23
2022-10-24T18:03:17.043Z,3.61
2022-10-24T18:05:47.170Z,3.42
2022-10-24T18:08:16.833Z,3.23
2022-10-24T18:10:46.499Z,3.80
2022-10-24T18:13:16.811Z,3.42
2022-10-24T18:15:46.489Z,4.37
2022-10-24T18:18:16.215Z,3.42
2022-10-24T18:20:45.932Z,3.99
2022-10-24T18:23:15.851Z,4.37
2022-10-24T18:25:45.550Z,3.80
2022-10-24T18:28:15.263Z,3.61
2022-10-24T18:30:45.075Z,3.23
2022-10-24T18:33:14.912Z,3.61
2022-10-24T18:35:44.597Z,3.42
2022-10-24T18:38:18.703Z,3.23
2022-10-24T18:40:48.946Z,3.23
2022-10-24T18:43:18.703Z,3.61
2022-10-24T18:45:51.474Z,3.61
2022-10-24T18:48:21.985Z,3.42
2022-10-24T18:50:52.069Z,3.42
2022-10-24T18:53:28.734Z,3.23
2022-10-24T18:55:57.679Z,3.23
2022-10-24T18:58:27.542Z,3.42
2022-10-24T19:00:59.466Z,3.80
2022-10-24T19:03:39.779Z,3.61
2022-10-24T19:06:36.898Z,3.23
2022-10-24T19:09:23.895Z,3.42
2022-10-24T19:11:53.747Z,3.42
2022-10-24T19:14:25.163Z,3.04
2022-10-24T19:16:58.110Z,3.99
2022-10-24T19:19:34.533Z,3.42
2022-10-24T19:22:04.448Z,3.04
2022-10-24T19:24:34.669Z,3.61
2022-10-24T19:27:04.668Z,3.61
2022-10-24T19:29:34.317Z,3.23
2022-10-24T19:32:04.124Z,3.61
2022-10-24T19:34:34.851Z,3.80
2022-10-24T19:37:04.573Z,3.61
2022-10-24T19:39:34.337Z,3.61
2022-10-24T19:42:07.074Z,3.61
2022-10-24T19:44:37.238Z,3.61
2022-10-24T19:47:07.116Z,3.80
2022-10-24T19:49:36.888Z,3.99
2022-10-24T19:52:07.193Z,3.80
2022-10-24T19:54:36.957Z,3.04
2022-10-24T19:57:06.666Z,3.80
2022-10-24T19:59:36.621Z,3.42
2022-10-24T20:02:06.820Z,2.85
2022-10-24T20:04:40.200Z,3.80
2022-10-24T20:07:10.015Z,3.99
2022-10-24T20:09:39.886Z,3.99
2022-10-24T20:12:17.284Z,3.99
2022-10-24T20:14:46.909Z,3.61
2022-10-24T20:17:17.010Z,3.99
2022-10-24T20:19:46.745Z,3.61
2022-10-24T20:22:16.456Z,4.37
2022-10-24T20:24:46.277Z,3.99
2022-10-24T20:27:18.737Z,5.13
2022-10-24T20:29:50.713Z,4.37
2022-10-24T20:32:20.641Z,4.18
2022-10-24T20:34:50.387Z,4.37
2022-10-24T20:37:20.339Z,3.80
2022-10-24T20:39:50.351Z,4.18
2022-10-24T20:42:22.317Z,4.37
2022-10-24T20:44:52.130Z,4.18
2022-10-24T20:47:21.907Z,4.75
2022-10-24T20:49:51.832Z,3.99
2022-10-24T20:52:21.627Z,3.99
2022-10-24T20:54:51.416Z,3.99
2022-10-24T20:57:21.118Z,3.61
2022-10-24T20:59:50.854Z,3.99
2022-10-24T21:02:21.002Z,3.80
2022-10-24T21:04:51.058Z,4.18
2022-10-24T21:07:20.791Z,4.18
2022-10-24T21:09:51.129Z,4.18
2022-10-24T21:12:21.098Z,5.51
2022-10-24T21:14:50.872Z,3.80
2022-10-24T21:17:20.914Z,4.18
2022-10-24T21:19:51.647Z,3.99
2022-10-24T21:22:21.333Z,4.75
2022-10-24T21:24:51.286Z,4.56
2022-10-24T21:27:21.233Z,4.94
2022-10-24T21:29:51.525Z,3.99
2022-10-24T21:32:21.615Z,4.18
2022-10-24T21:34:51.521Z,4.75
2022-10-24T21:37:21.201Z,4.18
2022-10-24T21:39:51.031Z,4.18
2022-10-24T21:44:58.677Z,4.94
2022-10-24T21:47:28.488Z,3.99
2022-10-24T21:49:58.261Z,4.56
2022-10-24T21:52:28.390Z,4.37
2022-10-24T21:54:58.055Z,6.08
2022-10-24T21:57:30.009Z,4.75
2022-10-24T21:59:59.781Z,4.18
2022-10-24T22:02:29.811Z,4.94
2022-10-24T22:04:59.734Z,5.13
2022-10-24T22:07:29.722Z,4.94
2022-10-24T22:09:59.517Z,3.99
2022-10-24T22:12:29.374Z,4.94
2022-10-24T22:14:59.221Z,4.37
2022-10-24T22:17:29.175Z,4.75
2022-10-24T22:19:58.961Z,4.37
2022-10-24T22:22:28.632Z,4.37
2022-10-24T22:24:58.427Z,4.94
2022-10-24T22:27:28.192Z,5.32
2022-10-24T22:29:57.996Z,5.13
2022-10-24T22:32:28.142Z,4.94
2022-10-24T22:34:58.605Z,5.13
2022-10-24T22:37:32.700Z,4.56
2022-10-24T22:40:02.921Z,4.94
2022-10-24T22:42:33.006Z,4.94
2022-10-24T22:45:03.713Z,4.94
2022-10-24T22:47:52.216Z,4.18
2022-10-24T22:50:54.384Z,4.75
2022-10-24T22:53:30.353Z,4.56
2022-10-24T22:56:17.722Z,4.37
2022-10-24T22:58:47.829Z,5.32
2022-10-24T23:02:13.266Z,4.37
2022-10-24T23:05:00.943Z,4.37
2022-10-24T23:08:03.296Z,4.94
2022-10-24T23:10:34.108Z,5.70
2022-10-24T23:13:04.733Z,5.13
2022-10-24T23:15:35.303Z,6.27
2022-10-24T23:18:06.000Z,5.13
2022-10-24T23:20:43.620Z,5.13
2022-10-24T23:23:28.843Z,4.94
2022-10-24T23:26:24.197Z,5.32
2022-10-24T23:29:13.379Z,4.56
2022-10-24T23:31:43.825Z,5.13
2022-10-24T23:34:14.346Z,5.32
2022-10-24T23:36:45.475Z,4.94
2022-10-24T23:39:16.498Z,5.13
2022-10-24T23:41:47.211Z,4.94
2022-10-24T23:44:17.506Z,4.56
2022-10-24T23:47:01.021Z,5.70
2022-10-24T23:49:38.579Z,4.56
2022-10-24T23:52:37.641Z,5.32
2022-10-24T23:55:12.198Z,5.70
2022-10-24T23:57:41.877Z,5.32
